createdAt,value
2019-02-22T00:01:10.964Z,34.53
2019-02-22T00:03:39.803Z,37.27
2019-02-22T00:06:08.583Z,42.83
2019-02-22T00:08:37.378Z,38.57
2019-02-22T00:11:06.257Z,42.77
2019-02-22T00:13:35.136Z,42.23
2019-02-22T00:16:03.901Z,36.73
2019-02-22T00:18:32.697Z,34.90
2019-02-22T00:21:01.450Z,35.30
2019-02-22T00:23:30.216Z,32.27
2019-02-22T00:25:59.069Z,34.93
2019-02-22T00:28:28.009Z,35.33
2019-02-22T00:30:56.801Z,33.40
2019-02-22T00:33:25.668Z,31.90
2019-02-22T00:35:54.457Z,33.60
2019-02-22T00:38:23.276Z,33.97
2019-02-22T00:40:52.048Z,34.60
2019-02-22T00:43:20.820Z,36.93
2019-02-22T00:45:49.664Z,34.17
2019-02-22T00:48:18.513Z,36.87
2019-02-22T00:50:47.421Z,31.20
2019-02-22T00:53:16.223Z,38.13
2019-02-22T00:55:45.066Z,35.40
2019-02-22T00:58:13.836Z,32.93
2019-02-22T01:00:42.692Z,32.87
2019-02-22T01:03:11.531Z,35.23
2019-02-22T01:05:40.374Z,33.27
2019-02-22T01:08:09.142Z,33.13
2019-02-22T01:10:38.062Z,38.83
2019-02-22T01:13:06.848Z,39.50
2019-02-22T01:15:35.626Z,31.53
2019-02-22T01:18:04.465Z,32.37
2019-02-22T01:20:33.256Z,32.73
2019-02-22T01:23:02.025Z,34.90
2019-02-22T01:25:30.809Z,36.40
2019-02-22T01:27:59.580Z,35.20
2019-02-22T01:30:28.355Z,39.90
2019-02-22T01:32:57.113Z,42.77
2019-02-22T01:35:26.000Z,40.57
2019-02-22T01:37:54.761Z,39.07
2019-02-22T01:40:23.607Z,36.53
2019-02-22T01:42:52.392Z,39.47
2019-02-22T01:45:21.163Z,39.10
2019-02-22T01:47:50.008Z,35.07
2019-02-22T01:50:22.881Z,32.97
2019-02-22T01:52:51.639Z,29.23
2019-02-22T01:55:20.401Z,33.17
2019-02-22T01:57:49.187Z,30.70
2019-02-22T02:00:18.034Z,31.87
2019-02-22T02:02:46.887Z,29.97
2019-02-22T02:05:15.729Z,32.43
2019-02-22T02:07:44.590Z,31.83
2019-02-22T02:10:13.355Z,31.20
2019-02-22T02:12:42.132Z,31.30
2019-02-22T02:15:10.907Z,34.57
2019-02-22T02:17:39.689Z,31.97
2019-02-22T02:20:08.830Z,32.73
2019-02-22T02:22:37.594Z,32.33
2019-02-22T02:25:08.558Z,35.37
2019-02-22T02:27:37.332Z,37.33
2019-02-22T02:30:08.498Z,31.60
2019-02-22T02:32:37.311Z,34.67
2019-02-22T02:35:06.596Z,33.13
2019-02-22T02:37:35.449Z,34.87
2019-02-22T02:40:05.299Z,31.20
2019-02-22T02:42:34.126Z,29.60
2019-02-22T02:45:02.993Z,42.70
2019-02-22T02:47:31.757Z,34.30
2019-02-22T02:50:00.519Z,33.77
2019-02-22T02:52:29.286Z,36.53
2019-02-22T02:54:58.067Z,31.03
2019-02-22T02:57:26.845Z,32.23
2019-02-22T02:59:55.610Z,31.60
2019-02-22T03:02:25.253Z,33.77
2019-02-22T03:04:54.187Z,36.53
2019-02-22T03:07:42.217Z,32.40
2019-02-22T03:10:10.980Z,33.77
2019-02-22T03:12:39.753Z,34.57
2019-02-22T03:15:11.023Z,33.90
2019-02-22T03:17:39.859Z,33.30
2019-02-22T03:20:09.395Z,34.47
2019-02-22T03:22:38.237Z,40.97
2019-02-22T03:25:08.852Z,38.90
2019-02-22T03:27:37.616Z,36.97
2019-02-22T03:30:09.174Z,40.97
2019-02-22T03:32:37.959Z,34.83
2019-02-22T03:35:07.408Z,41.40
2019-02-22T03:37:36.185Z,38.73
2019-02-22T03:40:07.188Z,38.03
2019-02-22T03:42:36.017Z,31.70
2019-02-22T03:45:08.452Z,33.50
2019-02-22T03:47:37.227Z,40.37
2019-02-22T03:50:06.979Z,37.30
2019-02-22T03:52:37.392Z,31.03
2019-02-22T03:55:07.937Z,32.60
2019-02-22T03:57:36.705Z,41.47
2019-02-22T04:00:10.611Z,33.93
2019-02-22T04:02:39.383Z,32.03
2019-02-22T04:05:08.620Z,33.23
2019-02-22T04:07:37.389Z,31.97
2019-02-22T04:10:07.542Z,33.80
2019-02-22T04:12:36.354Z,41.63
2019-02-22T04:15:07.791Z,35.03
2019-02-22T04:17:36.615Z,34.03
2019-02-22T04:20:07.298Z,37.87
2019-02-22T04:22:36.127Z,35.93
2019-02-22T04:25:05.600Z,32.30
2019-02-22T04:27:34.537Z,32.43
2019-02-22T04:30:03.368Z,35.57
2019-02-22T04:32:32.126Z,33.37
2019-02-22T04:35:00.960Z,33.40
2019-02-22T04:37:29.781Z,33.07
2019-02-22T04:39:58.611Z,37.93
2019-02-22T04:42:27.420Z,38.80
2019-02-22T04:44:56.256Z,41.77
2019-02-22T04:47:25.027Z,31.70
2019-02-22T04:49:53.846Z,29.10
2019-02-22T04:52:22.707Z,28.50
2019-02-22T04:54:51.468Z,34.10
2019-02-22T04:57:20.304Z,36.03
2019-02-22T04:59:49.190Z,37.87
2019-02-22T05:02:17.962Z,39.57
2019-02-22T05:04:46.745Z,31.63
2019-02-22T05:07:15.527Z,34.77
2019-02-22T05:09:44.375Z,49.47
2019-02-22T05:12:13.134Z,34.10
2019-02-22T05:14:42.017Z,41.37
2019-02-22T05:17:10.955Z,42.70
2019-02-22T05:19:39.793Z,42.03
2019-02-22T05:22:08.674Z,42.43
2019-02-22T05:24:37.530Z,42.93
2019-02-22T05:27:06.385Z,47.40
2019-02-22T05:29:35.266Z,35.03
2019-02-22T05:32:04.374Z,36.13
2019-02-22T05:34:33.197Z,34.07
2019-02-22T05:37:02.152Z,45.10
2019-02-22T05:39:30.920Z,35.20
2019-02-22T05:41:59.700Z,31.47
2019-02-22T05:44:28.573Z,38.13
2019-02-22T05:47:00.430Z,39.27
2019-02-22T05:49:27.962Z,52.70
2019-02-22T05:51:56.889Z,42.00
2019-02-22T05:54:25.691Z,39.80
2019-02-22T05:56:55.295Z,57.33
2019-02-22T05:59:24.237Z,49.10
2019-02-22T06:01:53.104Z,52.57
2019-02-22T06:04:21.925Z,37.73
2019-02-22T06:06:50.679Z,64.30
2019-02-22T06:09:19.527Z,34.83
2019-02-22T06:11:48.438Z,39.43
2019-02-22T06:14:17.275Z,43.43
2019-02-22T06:16:46.058Z,43.27
2019-02-22T06:19:14.808Z,39.70
2019-02-22T06:21:43.642Z,33.93
2019-02-22T06:24:18.159Z,38.17
2019-02-22T06:26:46.930Z,26.50
2019-02-22T06:29:15.773Z,30.13
2019-02-22T06:31:44.528Z,32.33
2019-02-22T06:34:13.363Z,28.20
2019-02-22T06:36:42.125Z,29.37
2019-02-22T06:39:10.889Z,33.90
2019-02-22T06:41:40.235Z,29.42
2019-02-22T06:44:11.907Z,32.55
2019-02-22T06:46:40.652Z,31.65
2019-02-22T06:49:10.061Z,25.50
2019-02-22T06:51:39.419Z,28.42
2019-02-22T06:54:08.789Z,30.97
2019-02-22T06:56:38.199Z,36.55
2019-02-22T06:59:07.529Z,47.40
2019-02-22T07:01:36.879Z,40.75
2019-02-22T07:04:06.281Z,44.40
2019-02-22T07:06:35.615Z,129.42
2019-02-22T07:09:06.163Z,52.25
2019-02-22T07:11:37.964Z,52.85
2019-02-22T07:14:07.398Z,57.20
2019-02-22T07:16:36.764Z,64.77
2019-02-22T07:19:06.116Z,48.38
2019-02-22T07:21:44.024Z,57.03
2019-02-22T07:24:06.568Z,44.45
2019-02-22T07:26:35.914Z,52.88
2019-02-22T07:29:05.267Z,58.65
2019-02-22T07:31:34.702Z,55.92
2019-02-22T07:34:04.120Z,31.95
2019-02-22T07:36:33.466Z,34.78
2019-02-22T07:39:04.702Z,29.65
2019-02-22T07:41:34.040Z,81.40
2019-02-22T07:44:03.395Z,56.35
2019-02-22T07:46:32.752Z,72.35
2019-02-22T07:49:02.101Z,63.63
2019-02-22T07:51:31.474Z,95.07
2019-02-22T07:54:00.906Z,42.73
2019-02-22T07:56:30.347Z,37.10
2019-02-22T07:58:59.784Z,51.45
2019-02-22T08:01:29.147Z,84.05
2019-02-22T08:03:58.514Z,55.25
2019-02-22T08:06:27.877Z,73.20
2019-02-22T08:08:57.251Z,26.80
2019-02-22T08:11:26.623Z,30.25
2019-02-22T08:13:55.956Z,36.83
2019-02-22T08:16:25.375Z,31.55
2019-02-22T08:19:01.679Z,31.70
2019-02-22T08:21:25.887Z,39.15
2019-02-22T08:23:55.255Z,28.90
2019-02-22T08:26:24.705Z,25.50
2019-02-22T08:28:54.052Z,32.63
2019-02-22T08:31:23.460Z,24.55
2019-02-22T08:33:52.818Z,25.80
2019-02-22T08:36:22.184Z,31.85
2019-02-22T08:38:51.527Z,25.27
2019-02-22T08:41:20.964Z,22.60
2019-02-22T08:43:50.426Z,26.82
2019-02-22T08:46:19.860Z,31.17
2019-02-22T08:48:49.231Z,25.43
2019-02-22T08:51:18.580Z,39.00
2019-02-22T08:53:47.955Z,25.62
2019-02-22T08:56:17.322Z,29.07
2019-02-22T08:58:46.700Z,24.40
2019-02-22T09:01:16.071Z,29.02
2019-02-22T09:03:50.833Z,23.50
2019-02-22T09:06:16.633Z,26.97
2019-02-22T09:08:45.989Z,25.88
2019-02-22T09:11:15.433Z,24.95
2019-02-22T09:13:44.790Z,33.00
2019-02-22T09:16:14.170Z,27.40
2019-02-22T09:18:43.617Z,27.60
2019-02-22T09:21:12.959Z,21.45
2019-02-22T09:23:42.321Z,26.75
2019-02-22T09:26:11.687Z,22.85
2019-02-22T09:28:41.055Z,28.35
2019-02-22T09:31:10.410Z,25.27
2019-02-22T09:33:39.766Z,26.75
2019-02-22T09:36:09.147Z,23.70
2019-02-22T09:38:38.567Z,28.98
2019-02-22T09:41:07.931Z,30.08
2019-02-22T09:43:37.359Z,28.62
2019-02-22T09:46:06.768Z,28.80
2019-02-22T09:48:36.124Z,26.65
2019-02-22T09:51:05.551Z,35.08
2019-02-22T09:53:34.984Z,30.20
2019-02-22T09:56:04.345Z,35.95
2019-02-22T09:58:33.702Z,30.17
2019-02-22T10:01:03.048Z,32.05
2019-02-22T10:03:32.408Z,33.23
2019-02-22T10:06:01.778Z,27.22
2019-02-22T10:08:31.191Z,33.40
2019-02-22T10:11:00.554Z,32.73
2019-02-22T10:13:29.912Z,34.23
2019-02-22T10:15:59.332Z,31.05
2019-02-22T10:18:28.707Z,25.27
2019-02-22T10:20:58.139Z,26.40
2019-02-22T10:23:27.507Z,33.13
2019-02-22T10:25:56.929Z,29.18
2019-02-22T10:28:26.296Z,26.85
2019-02-22T10:30:55.644Z,28.98
2019-02-22T10:33:35.954Z,26.00
2019-02-22T10:35:56.265Z,26.87
2019-02-22T10:38:25.591Z,29.20
2019-02-22T10:40:54.959Z,27.77
2019-02-22T10:43:24.322Z,23.20
2019-02-22T10:45:53.702Z,26.42
2019-02-22T10:48:23.057Z,29.87
2019-02-22T10:50:52.480Z,26.12
2019-02-22T10:53:21.820Z,28.70
2019-02-22T10:55:51.254Z,34.35
2019-02-22T10:58:20.626Z,38.30
2019-02-22T11:00:49.980Z,30.95
2019-02-22T11:03:19.342Z,34.18
2019-02-22T11:05:48.754Z,28.38
2019-02-22T11:08:18.220Z,33.45
2019-02-22T11:10:47.677Z,37.63
2019-02-22T11:13:17.032Z,40.35
2019-02-22T11:15:46.443Z,43.23
2019-02-22T11:18:15.999Z,42.88
2019-02-22T11:20:45.357Z,32.03
2019-02-22T11:23:14.789Z,32.48
2019-02-22T11:25:44.155Z,32.42
2019-02-22T11:28:13.583Z,35.68
2019-02-22T11:30:42.962Z,37.25
2019-02-22T11:33:12.320Z,35.20
2019-02-22T11:35:41.666Z,34.20
2019-02-22T11:38:11.078Z,33.40
2019-02-22T11:40:40.412Z,33.73
2019-02-22T11:43:09.845Z,38.70
2019-02-22T11:45:39.215Z,59.03
2019-02-22T11:48:09.537Z,63.63
2019-02-22T11:50:38.999Z,85.72
2019-02-22T11:53:08.360Z,83.10
2019-02-22T11:55:37.801Z,42.33
2019-02-22T11:58:07.184Z,42.70
2019-02-22T12:00:36.545Z,47.33
2019-02-22T12:03:21.248Z,54.10
2019-02-22T12:05:37.442Z,48.08
2019-02-22T12:08:06.789Z,43.78
2019-02-22T12:10:36.229Z,40.90
2019-02-22T12:13:05.662Z,51.65
2019-02-22T12:15:35.087Z,63.92
2019-02-22T12:18:04.428Z,96.28
2019-02-22T12:20:33.892Z,107.00
2019-02-22T12:23:03.247Z,126.65
2019-02-22T12:25:32.596Z,92.45
2019-02-22T12:28:01.964Z,86.95
2019-02-22T12:30:31.385Z,111.90
2019-02-22T12:33:00.746Z,99.37
2019-02-22T12:35:30.178Z,60.10
2019-02-22T12:37:59.530Z,55.58
2019-02-22T12:40:28.899Z,75.10
2019-02-22T12:42:58.273Z,49.63
2019-02-22T12:45:27.616Z,59.13
2019-02-22T12:47:56.991Z,70.05
2019-02-22T12:50:26.336Z,73.78
2019-02-22T12:52:55.705Z,69.82
2019-02-22T12:55:25.068Z,68.33
2019-02-22T12:57:54.430Z,56.00
2019-02-22T13:00:23.775Z,50.98
2019-02-22T13:03:01.620Z,45.28
2019-02-22T13:05:29.669Z,37.10
2019-02-22T13:07:59.095Z,29.80
2019-02-22T13:10:28.455Z,36.95
2019-02-22T13:12:57.820Z,71.87
2019-02-22T13:15:27.262Z,40.05
2019-02-22T13:17:56.627Z,21.17
2019-02-22T13:20:26.030Z,20.23
2019-02-22T13:22:55.518Z,23.73
2019-02-22T13:25:24.902Z,18.87
2019-02-22T13:27:54.260Z,20.35
2019-02-22T13:30:23.643Z,18.45
2019-02-22T13:32:52.999Z,31.10
2019-02-22T13:35:22.359Z,31.85
2019-02-22T13:37:51.778Z,31.95
2019-02-22T13:40:21.139Z,22.82
2019-02-22T13:42:50.612Z,17.95
2019-02-22T13:45:26.484Z,20.45
2019-02-22T13:47:51.138Z,28.45
2019-02-22T13:50:20.582Z,19.73
2019-02-22T13:52:50.012Z,24.37
2019-02-22T13:55:19.367Z,26.73
2019-02-22T13:57:48.729Z,16.60
2019-02-22T14:00:19.073Z,17.10
2019-02-22T14:02:48.426Z,14.93
2019-02-22T14:05:17.894Z,14.63
2019-02-22T14:07:57.007Z,10.32
2019-02-22T14:10:26.779Z,9.95
2019-02-22T14:12:56.091Z,13.25
2019-02-22T14:15:25.451Z,8.43
2019-02-22T14:17:56.536Z,13.85
2019-02-22T14:20:25.911Z,18.10
2019-02-22T14:22:55.286Z,37.15
2019-02-22T14:25:24.707Z,63.58
2019-02-22T14:27:54.066Z,77.72
2019-02-22T14:30:23.442Z,66.42
2019-02-22T14:32:52.803Z,56.18
2019-02-22T14:35:22.187Z,44.08
2019-02-22T14:37:51.633Z,19.20
2019-02-22T14:40:21.048Z,16.60
2019-02-22T14:42:50.477Z,19.20
2019-02-22T14:45:19.868Z,22.87
2019-02-22T14:47:49.226Z,28.23
2019-02-22T14:50:23.278Z,23.98
2019-02-22T14:52:52.639Z,12.73
2019-02-22T14:55:22.044Z,13.45
2019-02-22T14:57:51.414Z,12.65
2019-02-22T15:00:21.184Z,20.23
2019-02-22T15:02:50.565Z,22.55
2019-02-22T15:05:19.930Z,24.57
2019-02-22T15:07:49.366Z,24.32
2019-02-22T15:10:19.133Z,41.42
2019-02-22T15:12:48.603Z,21.35
2019-02-22T15:15:19.847Z,27.37
2019-02-22T15:17:59.894Z,32.23
2019-02-22T15:20:29.255Z,53.33
2019-02-22T15:22:58.619Z,60.03
2019-02-22T15:25:27.968Z,66.75
2019-02-22T15:27:57.409Z,80.42
2019-02-22T15:30:26.850Z,87.42
2019-02-22T15:32:56.265Z,103.17
2019-02-22T15:35:25.639Z,94.25
2019-02-22T15:37:55.009Z,91.17
2019-02-22T15:40:24.383Z,71.92
2019-02-22T15:42:53.736Z,51.73
2019-02-22T15:45:23.125Z,81.67
2019-02-22T15:47:52.436Z,12.80
2019-02-22T15:50:21.816Z,47.35
2019-02-22T15:52:51.248Z,42.62
2019-02-22T15:55:20.694Z,63.80
2019-02-22T15:57:50.045Z,8.18
2019-02-22T16:00:28.396Z,9.08
2019-02-22T16:02:57.728Z,7.87
2019-02-22T16:05:28.727Z,14.15
2019-02-22T16:07:58.137Z,13.60
2019-02-22T16:10:27.577Z,18.52
2019-02-22T16:12:57.053Z,13.95
2019-02-22T16:15:26.543Z,14.03
2019-02-22T16:17:56.064Z,26.60
2019-02-22T16:20:25.433Z,36.00
2019-02-22T16:22:54.787Z,16.97
2019-02-22T16:25:24.230Z,15.70
2019-02-22T16:27:53.599Z,16.60
2019-02-22T16:30:24.621Z,19.30
2019-02-22T16:32:54.087Z,23.90
2019-02-22T16:35:23.491Z,18.23
2019-02-22T16:37:52.945Z,17.95
2019-02-22T16:40:22.344Z,23.92
2019-02-22T16:42:51.902Z,27.77
2019-02-22T16:45:21.313Z,30.37
2019-02-22T16:47:50.819Z,24.02
2019-02-22T16:50:20.204Z,23.47
2019-02-22T16:52:49.654Z,28.75
2019-02-22T16:55:19.053Z,44.85
2019-02-22T16:57:48.479Z,45.20
2019-02-22T17:00:17.950Z,58.58
2019-02-22T17:02:47.346Z,54.88
2019-02-22T17:05:17.297Z,62.83
2019-02-22T17:07:46.678Z,43.48
2019-02-22T17:10:16.061Z,58.55
2019-02-22T17:12:45.518Z,36.77
2019-02-22T17:15:15.292Z,30.20
2019-02-22T17:17:44.774Z,27.48
2019-02-22T17:20:15.105Z,26.73
2019-02-22T17:22:44.588Z,23.57
2019-02-22T17:25:18.964Z,29.60
2019-02-22T17:27:48.390Z,31.27
2019-02-22T17:30:19.768Z,33.92
2019-02-22T17:32:49.219Z,32.23
2019-02-22T17:35:18.679Z,43.28
2019-02-22T17:37:48.174Z,46.83
2019-02-22T17:40:20.489Z,44.75
2019-02-22T17:42:49.919Z,30.45
2019-02-22T17:45:19.370Z,36.45
2019-02-22T17:47:48.820Z,28.77
2019-02-22T17:50:18.271Z,44.83
2019-02-22T17:52:48.086Z,69.07
2019-02-22T17:55:17.561Z,85.20
2019-02-22T17:57:47.001Z,70.95
2019-02-22T18:00:18.741Z,39.30
2019-02-22T18:02:48.208Z,34.05
2019-02-22T18:05:17.643Z,20.60
2019-02-22T18:07:47.092Z,30.45
2019-02-22T18:10:16.595Z,28.55
2019-02-22T18:12:46.066Z,24.23
2019-02-22T18:15:19.186Z,23.65
2019-02-22T18:17:48.778Z,24.07
2019-02-22T18:20:19.759Z,32.65
2019-02-22T18:22:49.208Z,38.48
2019-02-22T18:25:18.675Z,35.17
2019-02-22T18:27:48.233Z,37.65
2019-02-22T18:30:20.445Z,42.45
2019-02-22T18:32:49.890Z,49.25
2019-02-22T18:35:19.363Z,42.62
2019-02-22T18:37:58.979Z,33.90
2019-02-22T18:40:28.425Z,40.52
2019-02-22T18:42:57.864Z,42.95
2019-02-22T18:45:27.325Z,38.40
2019-02-22T18:47:56.862Z,42.40
2019-02-22T18:50:26.283Z,42.17
2019-02-22T18:52:55.775Z,36.25
2019-02-22T18:55:25.284Z,38.23
2019-02-22T18:57:54.938Z,41.73
2019-02-22T19:00:23.765Z,34.40
2019-02-22T19:02:53.244Z,30.30
2019-02-22T19:05:24.462Z,59.83
2019-02-22T19:07:54.036Z,23.80
2019-02-22T19:10:23.462Z,20.23
2019-02-22T19:12:52.863Z,22.35
2019-02-22T19:15:21.756Z,19.77
2019-02-22T19:17:51.224Z,32.53
2019-02-22T19:20:21.313Z,29.13
2019-02-22T19:22:50.703Z,29.50
2019-02-22T19:25:19.534Z,24.70
2019-02-22T19:27:48.371Z,20.53
2019-02-22T19:30:22.577Z,24.67
2019-02-22T19:32:51.367Z,28.73
2019-02-22T19:35:21.778Z,33.80
2019-02-22T19:37:50.650Z,34.97
2019-02-22T19:40:23.894Z,31.53
2019-02-22T19:42:52.714Z,32.17
2019-02-22T19:45:21.570Z,29.03
2019-02-22T19:47:51.854Z,26.83
2019-02-22T19:50:20.654Z,26.30
2019-02-22T19:52:49.481Z,27.57
2019-02-22T19:55:18.884Z,33.00
2019-02-22T19:57:48.307Z,30.82
2019-02-22T20:00:19.164Z,33.53
2019-02-22T20:02:47.926Z,32.57
2019-02-22T20:05:16.912Z,45.57
2019-02-22T20:07:46.267Z,53.23
2019-02-22T20:10:22.592Z,40.57
2019-02-22T20:12:51.440Z,31.70
2019-02-22T20:15:20.304Z,36.00
2019-02-22T20:17:54.405Z,35.70
2019-02-22T20:20:21.532Z,30.70
2019-02-22T20:22:50.446Z,30.13
2019-02-22T20:25:19.297Z,29.20
2019-02-22T20:27:49.693Z,33.77
2019-02-22T20:30:19.383Z,37.33
2019-02-22T20:32:48.197Z,31.47
2019-02-22T20:35:27.201Z,27.00
2019-02-22T20:37:55.965Z,34.20
2019-02-22T20:40:25.332Z,39.65
2019-02-22T20:42:54.824Z,36.38
2019-02-22T20:45:23.783Z,30.07
2019-02-22T20:47:52.568Z,31.10
2019-02-22T20:50:21.435Z,27.87
2019-02-22T20:52:50.268Z,28.17
2019-02-22T20:55:19.057Z,26.60
2019-02-22T20:57:48.119Z,36.10
2019-02-22T21:00:19.829Z,42.53
2019-02-22T21:02:48.671Z,42.05
2019-02-22T21:05:18.211Z,37.58
2019-02-22T21:07:47.139Z,34.97
2019-02-22T21:10:17.737Z,33.93
2019-02-22T21:12:47.100Z,38.70
2019-02-22T21:15:15.938Z,34.53
2019-02-22T21:17:44.706Z,41.63
2019-02-22T21:20:16.063Z,45.43
2019-02-22T21:22:44.838Z,45.40
2019-02-22T21:25:13.713Z,47.47
2019-02-22T21:27:42.552Z,55.57
2019-02-22T21:30:14.001Z,44.57
2019-02-22T21:32:42.834Z,20.10
2019-02-22T21:35:11.596Z,10.60
2019-02-22T21:37:41.744Z,5.17
2019-02-22T21:40:11.686Z,4.50
2019-02-22T21:42:40.501Z,5.73
2019-02-22T21:45:11.517Z,3.47
2019-02-22T21:47:40.339Z,3.40
2019-02-22T21:50:11.520Z,5.70
2019-02-22T21:52:40.348Z,4.83
2019-02-22T21:55:13.150Z,7.23
2019-02-22T21:57:41.914Z,8.30
2019-02-22T22:00:16.623Z,11.03
2019-02-22T22:02:45.401Z,7.77
2019-02-22T22:05:14.213Z,20.90
2019-02-22T22:07:43.020Z,8.20
2019-02-22T22:10:11.889Z,8.47
2019-02-22T22:12:40.677Z,9.87
2019-02-22T22:15:13.875Z,8.43
2019-02-22T22:17:42.621Z,7.90
2019-02-22T22:20:11.474Z,10.20
2019-02-22T22:22:40.552Z,10.10
2019-02-22T22:25:11.912Z,13.27
2019-02-22T22:27:40.675Z,11.87
2019-02-22T22:30:12.383Z,10.83
2019-02-22T22:32:41.150Z,11.83
2019-02-22T22:35:14.977Z,14.73
2019-02-22T22:37:43.755Z,12.13
2019-02-22T22:40:12.610Z,11.97
2019-02-22T22:42:41.445Z,11.87
2019-02-22T22:45:12.170Z,21.77
2019-02-22T22:47:41.014Z,10.17
2019-02-22T22:50:11.490Z,12.70
2019-02-22T22:52:40.250Z,9.33
2019-02-22T22:55:10.378Z,12.23
2019-02-22T22:57:39.167Z,10.37
2019-02-22T23:00:35.665Z,10.57
2019-02-22T23:03:04.612Z,13.10
2019-02-22T23:05:33.941Z,12.33
2019-02-22T23:08:02.751Z,14.67
2019-02-22T23:10:31.575Z,14.83
2019-02-22T23:13:00.454Z,13.07
2019-02-22T23:15:29.278Z,11.13
2019-02-22T23:17:58.112Z,11.73
2019-02-22T23:20:26.904Z,12.13
2019-02-22T23:22:55.743Z,11.37
2019-02-22T23:25:24.487Z,11.90
2019-02-22T23:27:53.316Z,42.73
2019-02-22T23:30:22.075Z,15.73
2019-02-22T23:32:50.967Z,17.60
2019-02-22T23:35:19.808Z,18.10
2019-02-22T23:37:48.654Z,13.97
2019-02-22T23:40:17.507Z,20.03
2019-02-22T23:42:46.272Z,16.23
2019-02-22T23:45:15.065Z,17.10
2019-02-22T23:47:43.831Z,14.40
2019-02-22T23:50:12.655Z,20.20
2019-02-22T23:52:41.532Z,18.47
2019-02-22T23:55:10.366Z,15.97
2019-02-22T23:57:39.145Z,16.03
